Centrahoma, OK (74534)

8:03 PM CST on February 11, 2016 (GMT -0600)
Atoka Municipal | | Change Station
CLOSE
Current Station
Airport
Location: Atoka,
Elevation: 591 ft
Nearby Weather Stations

Elev 591 ft 34.40 °N, 96.15 °W | Updated 8 minutes ago

Clear
Clear
54 °F
Feels Like 54 °F
N
4
Wind Variable Wind from NNE

Today
High -- | Low -- °F
--% Chance of Precip.
Yesterday
High -- | Low -- °F
Precip. -- in
Pressure 30.15 in
Visibility -9999.0 miles
Clouds Clear
Dew Point 32 °F
Humidity 44%
Rainfall 0.00 in
Snow Depth Not available.
7:15 AM 6:04 PM
Waxing Crescent, 16% visible
METAR KAQR 120155Z AUTO 02003KT CLR 12/00 A3015 RMK AO2
Pressure 30.15 in
Visibility -9999.0 miles
Clouds Clear
Dew Point 32 °F
Humidity 44%
Rainfall 0.00 in
Snow Depth Not available.
7:15 AM 6:04 PM
Waxing Crescent, 16% visible
METAR KAQR 120155Z AUTO 02003KT CLR 12/00 A3015 RMK AO2

10-Day Weather Forecast

Almanac

Astronomy

Feb. 11, 2016 Rise Set
Actual Time
Civil Twilight
Nautical Twilight
Astronomical Twilight
Moon
Length of Visible Light
Length of Day
Tomorrow will be .
, % of the Moon is Illuminated

Today's Extremes

State Highs State Lows

Community

WunderPhotos

Upload Photos

1,892,223 photos uploaded!

WunderBlog® & News

Nearby

Air Quality

  Air Quality AQ Index Pollutant
Not available.

Snow Depth

Station Depth Elevation

Earthquake Activity

City Distance Mag. Time & Date
Minimum magnitude displayed is 2.5.

Coastal Water Temperatures

Place Temperature

Stations

Nearby Weather Stations

Station Location Temp. Windchill Dew Point Humidity Wind Precip. Elev Updated Type
                   

Watches & Warnings

There are currently no watches in effect.